Time;durP1;ratioP1;P1;durP2;ratioP2;P2;SDS_P1;SDS_P2;PMS_P1;PMS_P2;Temp;Humidity;BMP_temperature;BMP_pressure;BME280_temperature;BME280_humidity;BME280_pressure;Samples;Min_cycle;Max_cycle;Signal;HPM_P1;HPM_P2
2022/09/12 00:02:24;;;;;;;16.65;10.30;;;;;;;15.46;70.99;101609.69;6178415;23;20009;-88
2022/09/12 00:04:50;;;;;;;14.65;10.13;;;;;;;15.42;69.55;101616.97;6151941;23;20008;-88
2022/09/12 00:07:15;;;;;;;12.85;10.23;;;;;;;15.41;69.43;101639.22;6180318;23;20473;-88
2022/09/12 00:09:41;;;;;;;9.23;8.30;;;;;;;15.30;71.23;101629.09;6151205;23;20009;-89
2022/09/12 00:12:06;;;;;;;10.60;9.43;;;;;;;15.23;70.00;101619.66;6179355;23;20337;-88
2022/09/12 00:14:31;;;;;;;11.38;9.60;;;;;;;15.19;70.94;101612.72;6178505;23;20031;-88
2022/09/12 00:16:58;;;;;;;12.18;9.63;;;;;;;15.15;70.23;101623.59;6153872;23;20016;-88
2022/09/12 00:19:24;;;;;;;13.10;9.85;;;;;;;15.08;71.95;101604.41;6179050;23;20005;-88
2022/09/12 00:21:50;;;;;;;10.90;9.35;;;;;;;15.11;69.88;101603.38;6181913;23;20422;-88
2022/09/12 00:24:15;;;;;;;14.90;10.52;;;;;;;15.06;71.98;101603.59;6153603;23;20016;-88
2022/09/12 00:26:40;;;;;;;12.35;10.30;;;;;;;15.03;70.44;101607.28;6180719;23;20437;-88
2022/09/12 00:29:05;;;;;;;16.55;11.27;;;;;;;15.03;71.13;101614.41;6181178;23;20013;-88
2022/09/12 00:31:31;;;;;;;17.40;11.93;;;;;;;14.98;71.20;101613.75;6153491;23;20005;-88
2022/09/12 00:33:59;;;;;;;15.85;11.80;;;;;;;14.98;72.14;101613.75;6152055;23;20156;-87
2022/09/12 00:36:25;;;;;;;16.70;13.35;;;;;;;14.92;71.27;101604.25;6178888;23;20028;-88
2022/09/12 00:38:52;;;;;;;18.17;12.80;;;;;;;14.78;72.30;101602.22;6180177;23;20110;-88
2022/09/12 00:41:22;;;;;;;21.65;14.32;;;;;;;14.72;72.01;101604.28;6153389;23;20005;-89
2022/09/12 00:43:51;;;;;;;24.40;18.13;;;;;;;14.76;72.17;101601.41;6154287;23;20013;-88
2022/09/12 00:46:35;;;;;;;21.27;15.38;;;;;;;14.92;71.23;101614.00;6180106;23;20376;-88
2022/09/12 00:49:11;;;;;;;22.00;16.27;;;;;;;14.94;71.98;101609.50;6178893;23;20079;-88
2022/09/12 00:51:38;;;;;;;19.80;14.02;;;;;;;14.89;72.27;101599.06;6153086;23;20012;-88
2022/09/12 00:54:09;;;;;;;24.17;16.15;;;;;;;14.83;72.36;101593.13;6153372;23;20009;-89
2022/09/12 00:56:37;;;;;;;22.48;17.73;;;;;;;14.88;75.22;101591.16;6153804;23;20052;-88
2022/09/12 00:59:13;;;;;;;24.58;18.42;;;;;;;14.86;73.79;101585.03;6153999;23;20009;-88
2022/09/12 01:01:40;;;;;;;26.98;18.63;;;;;;;14.87;72.44;101595.59;6152455;23;20475;-88
2022/09/12 01:04:07;;;;;;;23.92;18.08;;;;;;;14.73;72.01;101572.25;6178056;23;20005;-89
2022/09/12 01:06:37;;;;;;;25.85;19.15;;;;;;;14.86;72.11;101585.03;6150419;23;20024;-89
2022/09/12 01:09:04;;;;;;;25.85;19.00;;;;;;;14.71;72.58;101558.16;6154213;23;20384;-88
2022/09/12 01:11:31;;;;;;;23.00;15.40;;;;;;;14.82;72.76;101586.94;6153973;23;20268;-89
2022/09/12 01:13:56;;;;;;;22.50;16.63;;;;;;;14.76;72.67;101576.59;6154205;23;20009;-89
2022/09/12 01:16:22;;;;;;;21.33;16.13;;;;;;;14.78;72.44;101578.25;6153327;23;20329;-88
2022/09/12 01:18:52;;;;;;;23.98;16.27;;;;;;;14.73;73.12;101582.03;6179358;23;20001;-88
2022/09/12 01:21:41;;;;;;;24.67;16.80;;;;;;;14.68;72.06;101579.59;6153539;23;20311;-88
2022/09/12 01:24:47;;;;;;;22.13;16.67;;;;;;;14.67;72.57;101585.00;6152931;23;20035;-88
2022/09/12 01:27:25;;;;;;;21.80;17.05;;;;;;;14.64;74.24;101591.34;6154051;23;20464;-88
2022/09/12 01:30:18;;;;;;;25.13;17.25;;;;;;;14.63;74.45;101578.09;6152871;23;20468;-88
2022/09/12 01:33:16;;;;;;;23.83;17.52;;;;;;;14.61;74.19;101564.00;6180521;23;20005;-88
2022/09/12 01:35:56;;;;;;;25.15;17.15;;;;;;;14.56;73.20;101571.31;6180152;23;20041;-88
2022/09/12 01:38:35;;;;;;;21.42;15.98;;;;;;;14.58;72.57;101558.81;6154194;23;20021;-87
2022/09/12 01:41:28;;;;;;;23.67;16.67;;;;;;;14.62;72.71;101563.91;6180759;23;20079;-88
2022/09/12 01:44:18;;;;;;;19.33;13.80;;;;;;;14.53;73.83;101551.88;6154315;23;20318;-88
2022/09/12 01:46:54;;;;;;;13.80;11.90;;;;;;;14.35;73.12;101541.19;6180787;23;20001;-88
2022/09/12 01:49:31;;;;;;;12.23;10.93;;;;;;;14.37;72.75;101553.50;6152610;23;20019;-89
2022/09/12 01:52:09;;;;;;;18.20;13.15;;;;;;;14.27;73.12;101553.03;6154850;23;20436;-88
2022/09/12 01:54:40;;;;;;;24.10;16.75;;;;;;;14.18;73.42;101555.25;6180784;23;20365;-88
2022/09/12 01:57:13;;;;;;;22.20;16.27;;;;;;;14.22;74.98;101552.38;6153235;23;20012;-88
2022/09/12 01:59:53;;;;;;;22.95;16.77;;;;;;;14.15;74.30;101537.59;6153383;23;20005;-88
2022/09/12 02:02:27;;;;;;;20.05;14.80;;;;;;;14.11;73.82;101532.50;6152928;23;20020;-88
2022/09/12 02:04:58;;;;;;;20.05;15.23;;;;;;;14.18;74.10;101542.81;6177887;23;20009;-89
2022/09/12 02:07:35;;;;;;;24.05;15.95;;;;;;;14.24;72.77;101533.69;6179424;23;20013;-89
2022/09/12 02:10:13;;;;;;;24.25;16.05;;;;;;;14.26;73.08;101535.31;6179347;23;20009;-88
2022/09/12 02:12:54;;;;;;;22.65;14.70;;;;;;;14.20;73.19;101529.44;6180066;23;20005;-87
2022/09/12 02:15:26;;;;;;;18.15;13.95;;;;;;;14.13;74.04;101534.16;6180434;23;20017;-88
2022/09/12 02:17:56;;;;;;;19.47;14.53;;;;;;;14.10;73.79;101531.63;6153586;23;20012;-88
2022/09/12 02:20:32;;;;;;;23.08;15.88;;;;;;;14.04;74.03;101524.78;6152493;23;20087;-88
2022/09/12 02:22:59;;;;;;;25.52;18.02;;;;;;;14.01;75.07;101524.91;6130931;23;20553;-88
2022/09/12 02:25:28;;;;;;;26.38;18.88;;;;;;;13.88;75.16;101514.88;6180312;23;20325;-88
2022/09/12 02:28:07;;;;;;;26.70;15.73;;;;;;;13.96;74.62;101526.06;6151987;23;20069;-88
2022/09/12 02:30:52;;;;;;;24.25;16.08;;;;;;;13.99;74.41;101523.28;6178677;23;20012;-88
2022/09/12 02:33:31;;;;;;;23.15;15.32;;;;;;;14.07;73.93;101536.22;6180331;23;20005;-88
2022/09/12 02:36:21;;;;;;;23.23;16.25;;;;;;;13.90;74.09;101515.69;6180011;23;20077;-88
2022/09/12 02:38:47;;;;;;;23.63;15.63;;;;;;;13.84;73.98;101529.22;6154334;23;20425;-88
2022/09/12 02:41:17;;;;;;;21.92;14.98;;;;;;;13.81;74.22;101534.69;6179629;23;20349;-88
2022/09/12 02:43:42;;;;;;;23.50;16.40;;;;;;;13.69;75.03;101530.75;6128705;23;20467;-89
2022/09/12 02:46:16;;;;;;;22.38;14.68;;;;;;;13.66;75.40;101529.09;6180342;23;20005;-88
2022/09/12 02:48:42;;;;;;;18.10;14.15;;;;;;;13.69;75.77;101530.75;6153549;23;20013;-88
2022/09/12 02:51:09;;;;;;;20.88;14.57;;;;;;;13.66;75.35;101513.16;6153515;23;20012;-88
2022/09/12 02:53:35;;;;;;;21.05;15.20;;;;;;;13.68;75.25;101526.38;6179966;23;20079;-88
2022/09/12 02:56:04;;;;;;;22.77;15.25;;;;;;;13.71;75.63;101516.47;6180591;23;20091;-88
2022/09/12 02:58:30;;;;;;;25.92;14.98;;;;;;;13.77;75.11;101516.22;6152302;23;20027;-88
2022/09/12 03:01:11;;;;;;;22.17;15.88;;;;;;;13.88;74.32;101512.22;6152547;23;20001;-88
2022/09/12 03:03:54;;;;;;;21.17;14.68;;;;;;;13.92;75.18;101513.81;6180074;23;20102;-88
2022/09/12 03:06:41;;;;;;;19.35;13.88;;;;;;;13.76;73.77;101493.22;6152938;23;20435;-88
2022/09/12 03:09:35;;;;;;;36.20;15.18;;;;;;;13.86;73.48;101511.44;6152613;23;20103;-88
2022/09/12 03:12:10;;;;;;;14.57;12.23;;;;;;;13.67;73.59;101492.75;6167958;23;20095;-88
2022/09/12 03:14:48;;;;;;;12.05;10.52;;;;;;;13.72;74.76;101504.06;6180190;23;20075;-88
2022/09/12 03:17:23;;;;;;;11.80;9.93;;;;;;;13.69;75.74;101494.41;6153205;23;20067;-88
2022/09/12 03:20:02;;;;;;;11.38;9.90;;;;;;;13.71;75.96;101505.84;6153456;23;20080;-88
2022/09/12 03:22:47;;;;;;;16.10;10.80;;;;;;;13.65;74.10;101508.75;6179157;23;20009;-88
2022/09/12 03:25:29;;;;;;;15.05;11.63;;;;;;;13.62;74.08;101490.28;6153593;23;20643;-88
2022/09/12 03:27:59;;;;;;;15.25;11.38;;;;;;;13.66;75.48;101498.97;6178083;23;20009;-88
2022/09/12 03:30:25;;;;;;;17.50;13.40;;;;;;;13.60;74.66;101496.59;6149449;23;20346;-88
2022/09/12 03:32:53;;;;;;;20.25;14.73;;;;;;;13.55;74.69;101495.91;6180089;23;20005;-88
2022/09/12 03:35:20;;;;;;;19.20;14.48;;;;;;;13.50;74.59;101493.47;6179245;23;20001;-88
2022/09/12 03:37:47;;;;;;;23.48;14.80;;;;;;;13.59;75.64;101500.19;6180108;23;20001;-88
2022/09/12 03:40:12;;;;;;;18.63;14.55;;;;;;;13.56;75.27;101487.00;6180380;23;20001;-88
2022/09/12 03:42:38;;;;;;;19.38;14.20;;;;;;;13.46;75.65;101494.50;6179599;23;20056;-88
2022/09/12 03:45:05;;;;;;;22.48;13.70;;;;;;;13.40;74.93;101495.63;6153009;23;20015;-88
2022/09/12 03:47:30;;;;;;;19.30;13.18;;;;;;;13.37;75.32;101497.53;6153087;23;20055;-88
2022/09/12 03:49:55;;;;;;;23.75;15.23;;;;;;;13.31;75.49;101495.16;6152789;23;20017;-88
2022/09/12 03:52:21;;;;;;;24.85;15.88;;;;;;;13.29;76.23;101487.25;6179014;23;20008;-88
2022/09/12 03:54:47;;;;;;;25.83;17.23;;;;;;;13.36;76.47;101493.16;6153970;23;20005;-86
2022/09/12 03:57:12;;;;;;;20.63;14.35;;;;;;;13.37;76.08;101485.13;6153274;23;20001;-88
2022/09/12 03:59:37;;;;;;;21.45;14.35;;;;;;;13.44;75.75;101483.97;6179614;23;20028;-88
2022/09/12 04:02:03;;;;;;;20.15;14.18;;;;;;;13.38;76.10;101464.75;6178534;23;20005;-87
2022/09/12 04:04:29;;;;;;;23.13;14.85;;;;;;;13.33;76.28;101466.72;6153471;23;20012;-87
2022/09/12 04:06:54;;;;;;;20.30;15.68;;;;;;;13.39;76.09;101475.31;6142504;23;20017;-87
2022/09/12 04:09:20;;;;;;;19.45;13.77;;;;;;;13.46;75.67;101475.91;6122743;23;20238;-87
2022/09/12 04:11:45;;;;;;;23.63;16.00;;;;;;;13.37;76.47;101481.59;6149443;23;20039;-87
2022/09/12 04:14:11;;;;;;;21.30;15.40;;;;;;;13.39;77.82;101475.31;6151559;23;20033;-87
2022/09/12 04:16:36;;;;;;;24.20;15.27;;;;;;;13.41;76.39;101464.63;6122958;23;20016;-88
2022/09/12 04:19:02;;;;;;;23.45;14.45;;;;;;;13.40;75.78;101463.75;6124129;23;20006;-88
2022/09/12 04:21:27;;;;;;;23.10;15.77;;;;;;;13.47;75.98;101465.22;6122489;23;20008;-88
2022/09/12 04:23:52;;;;;;;20.48;14.82;;;;;;;13.55;75.73;101472.00;6149991;23;20137;-88
2022/09/12 04:26:19;;;;;;;21.33;14.02;;;;;;;13.52;75.89;101465.91;6125058;23;20016;-87
2022/09/12 04:28:45;;;;;;;19.77;14.27;;;;;;;13.50;75.80;101459.78;6151676;23;20005;-88
2022/09/12 04:31:14;;;;;;;21.48;15.10;;;;;;;13.54;76.46;101455.22;6150435;23;20016;-88
2022/09/12 04:33:40;;;;;;;24.48;16.55;;;;;;;13.65;75.44;101473.34;6126768;23;20476;-88
2022/09/12 04:36:13;;;;;;;21.90;14.80;;;;;;;13.56;75.61;101465.75;6125702;23;20009;-88
2022/09/12 04:38:38;;;;;;;22.95;15.77;;;;;;;13.51;75.53;101455.31;6151927;23;20012;-87
2022/09/12 04:41:16;;;;;;;21.80;14.90;;;;;;;13.59;76.43;101469.16;6124024;23;20031;-87
2022/09/12 04:43:45;;;;;;;27.92;15.60;;;;;;;13.53;76.51;101453.50;6152572;23;20426;-88
2022/09/12 04:46:12;;;;;;;24.95;15.75;;;;;;;13.57;76.23;101454.19;6150850;23;20013;-87
2022/09/12 04:48:38;;;;;;;22.25;15.73;;;;;;;13.60;76.21;101456.72;6126422;23;20005;-88
2022/09/12 04:51:09;;;;;;;25.02;16.90;;;;;;;13.56;75.91;101450.69;6124225;23;20001;-87
2022/09/12 04:53:35;;;;;;;20.23;14.68;;;;;;;13.64;76.51;101453.88;6152779;23;20013;-87
2022/09/12 04:56:06;;;;;;;24.13;15.27;;;;;;;13.57;78.15;101449.78;6124207;23;20005;-88
2022/09/12 04:58:32;;;;;;;29.95;18.17;;;;;;;13.58;77.58;101458.59;6126357;23;20005;-88
2022/09/12 05:01:07;;;;;;;29.25;18.58;;;;;;;13.56;77.04;101444.50;6149856;23;20374;-87
2022/09/12 05:03:33;;;;;;;29.00;18.25;;;;;;;13.61;78.08;101459.31;6125020;23;20009;-88
2022/09/12 05:06:02;;;;;;;26.85;18.88;;;;;;;13.51;77.79;101445.56;6125383;23;20012;-87
2022/09/12 05:08:28;;;;;;;29.08;17.42;;;;;;;13.52;78.25;101467.69;6126159;23;20013;-88
2022/09/12 05:10:53;;;;;;;30.20;19.00;;;;;;;13.47;78.35;101454.59;6150436;23;20088;-87
2022/09/12 05:13:19;;;;;;;27.02;17.42;;;;;;;13.51;78.21;101456.19;6152420;23;20084;-88
2022/09/12 05:15:53;;;;;;;25.10;17.00;;;;;;;13.50;78.10;101445.63;6150743;23;20016;-88
2022/09/12 05:18:18;;;;;;;26.13;17.17;;;;;;;13.56;78.42;101456.00;6152559;23;20005;-87
2022/09/12 05:20:43;;;;;;;30.80;19.95;;;;;;;13.52;78.88;101467.69;6149875;23;20076;-87
2022/09/12 05:23:09;;;;;;;28.70;18.33;;;;;;;13.45;78.54;101445.84;6152283;23;20001;-88
2022/09/12 05:25:34;;;;;;;26.35;18.33;;;;;;;13.71;79.14;101468.66;6124412;23;20080;-87
2022/09/12 05:27:59;;;;;;;29.52;19.40;;;;;;;13.75;78.60;101464.03;6124977;23;20009;-87
2022/09/12 05:30:24;;;;;;;31.67;19.92;;;;;;;13.68;79.03;101460.78;6150070;23;20134;-88
2022/09/12 05:32:50;;;;;;;27.20;18.40;;;;;;;13.64;78.80;101451.22;6126436;23;20021;-87
2022/09/12 05:35:16;;;;;;;30.52;19.20;;;;;;;13.72;79.07;101464.19;6123839;23;20009;-87
2022/09/12 05:37:42;;;;;;;35.90;21.10;;;;;;;13.71;78.45;101468.66;6151381;23;20002;-87
2022/09/12 05:40:07;;;;;;;27.98;18.92;;;;;;;13.74;78.53;101464.97;6125140;23;20002;-89
2022/09/12 05:42:33;;;;;;;35.72;20.48;;;;;;;13.72;79.20;101453.56;6151445;23;20029;-87
2022/09/12 05:44:58;;;;;;;28.58;19.73;;;;;;;13.74;79.15;101460.53;6124482;23;20014;-87
2022/09/12 05:47:23;;;;;;;29.73;18.80;;;;;;;13.73;78.83;101450.81;6149796;23;20337;-87
2022/09/12 05:49:51;;;;;;;27.30;18.00;;;;;;;13.82;78.56;101462.84;6123120;23;20015;-88
2022/09/12 05:52:16;;;;;;;23.95;17.17;;;;;;;13.99;78.29;101473.63;6123910;23;20430;-87
2022/09/12 05:54:42;;;;;;;26.88;17.58;;;;;;;14.02;79.37;101464.63;6149956;23;20012;-87
2022/09/12 05:57:07;;;;;;;25.92;17.85;;;;;;;14.17;78.08;101471.03;6150320;23;20010;-87
2022/09/12 05:59:32;;;;;;;28.63;17.85;;;;;;;14.12;78.10;101457.97;6124076;23;20041;-87
2022/09/12 06:01:58;;;;;;;30.40;19.95;;;;;;;14.19;77.65;101462.09;6121263;23;20005;-88
2022/09/12 06:04:24;;;;;;;31.35;19.05;;;;;;;14.20;77.71;101470.91;6123318;23;20127;-87
2022/09/12 06:06:50;;;;;;;27.88;18.83;;;;;;;14.17;78.15;101482.53;6124763;23;20017;-88
2022/09/12 06:09:16;;;;;;;33.05;21.00;;;;;;;14.19;78.41;101480.69;6125422;23;20463;-87
2022/09/12 06:11:43;;;;;;;30.48;19.40;;;;;;;14.18;78.01;101481.63;6123579;23;20116;-87
2022/09/12 06:14:13;;;;;;;30.67;20.33;;;;;;;14.27;77.81;101488.34;6150627;23;20002;-88
2022/09/12 06:16:39;;;;;;;29.05;19.27;;;;;;;14.32;77.62;101485.47;6123340;23;20005;-89
2022/09/12 06:19:11;;;;;;;28.13;18.45;;;;;;;14.38;77.50;101482.53;6150320;23;20489;-87
2022/09/12 06:21:38;;;;;;;32.10;19.75;;;;;;;14.37;78.28;101479.00;6149154;23;20005;-87
2022/09/12 06:24:03;;;;;;;29.42;19.45;;;;;;;14.35;78.41;101477.34;6150033;23;20005;-87
2022/09/12 06:26:29;;;;;;;29.88;18.77;;;;;;;14.42;78.01;101486.78;6123760;23;20005;-87
2022/09/12 06:28:56;;;;;;;30.17;20.60;;;;;;;14.39;79.20;101485.09;6148162;23;20048;-87
2022/09/12 06:31:25;;;;;;;31.10;19.90;;;;;;;14.35;78.25;101482.66;6121859;23;20006;-87
2022/09/12 06:33:52;;;;;;;27.63;18.83;;;;;;;14.24;78.33;101469.84;6123852;23;20017;-87
2022/09/12 06:36:27;;;;;;;29.27;20.15;;;;;;;14.25;78.52;101476.88;6149806;23;20005;-88
2022/09/12 06:39:01;;;;;;;32.85;20.95;;;;;;;14.22;79.16;101474.34;6150809;23;20691;-88
2022/09/12 06:41:27;;;;;;;30.70;19.33;;;;;;;14.26;79.05;101482.13;6149581;23;20432;-88
2022/09/12 06:43:53;;;;;;;35.42;21.80;;;;;;;14.25;79.59;101477.75;6125058;23;20042;-88
2022/09/12 06:46:19;;;;;;;29.88;20.25;;;;;;;14.31;79.04;101465.97;6148380;23;20002;-88
2022/09/12 06:48:45;;;;;;;30.73;20.30;;;;;;;14.45;78.40;101476.84;6123570;23;20013;-88
2022/09/12 06:51:13;;;;;;;32.95;21.45;;;;;;;14.59;78.55;101468.25;6149229;23;20315;-89
2022/09/12 06:53:39;;;;;;;30.75;20.08;;;;;;;14.74;79.14;101472.00;6147184;23;20009;-88
2022/09/12 06:56:10;;;;;;;32.00;20.65;;;;;;;14.90;78.58;101472.97;6121456;23;20036;-88
2022/09/12 06:58:36;;;;;;;31.90;20.98;;;;;;;15.03;78.50;101475.94;6149769;23;20002;-89
2022/09/12 07:01:03;;;;;;;34.13;22.75;;;;;;;15.00;78.28;101478.72;6123390;23;20012;-88
2022/09/12 07:03:28;;;;;;;33.42;22.10;;;;;;;14.98;78.92;101480.63;6146600;23;20002;-88
2022/09/12 07:05:54;;;;;;;32.35;20.92;;;;;;;15.02;77.55;101476.88;6148619;23;20068;-88
2022/09/12 07:08:19;;;;;;;35.63;22.00;;;;;;;15.05;79.03;101458.91;6176162;23;20039;-88
2022/09/12 07:10:45;;;;;;;32.20;21.05;;;;;;;15.10;78.81;101472.00;6152284;23;20012;-87
2022/09/12 07:13:10;;;;;;;34.75;22.35;;;;;;;15.03;80.03;101465.28;6152569;23;20342;-87
2022/09/12 07:15:35;;;;;;;30.00;20.88;;;;;;;15.15;78.98;101472.66;6178012;23;20079;-90
2022/09/12 07:18:01;;;;;;;30.48;20.80;;;;;;;15.10;79.81;101472.00;6152286;23;20035;-87
2022/09/12 07:20:27;;;;;;;33.75;22.45;;;;;;;15.20;80.44;101469.75;6151920;23;20009;-87
2022/09/12 07:22:52;;;;;;;33.75;24.27;;;;;;;15.21;80.72;101463.50;6178394;23;20005;-86
2022/09/12 07:25:17;;;;;;;36.83;24.55;;;;;;;15.20;80.67;101470.66;6178302;23;20344;-87
2022/09/12 07:27:43;;;;;;;36.17;24.17;;;;;;;15.24;80.44;101461.53;6151540;23;20381;-87
2022/09/12 07:30:08;;;;;;;31.60;21.02;;;;;;;15.33;79.61;101449.56;6151826;23;20001;-87
2022/09/12 07:32:33;;;;;;;37.95;22.48;;;;;;;15.48;79.18;101456.81;6150921;23;20091;-86
2022/09/12 07:34:59;;;;;;;33.92;22.92;;;;;;;15.57;79.43;101458.09;6178004;23;20009;-87
2022/09/12 07:37:24;;;;;;;36.42;22.98;;;;;;;15.59;79.91;101458.06;6151484;23;20028;-86
2022/09/12 07:39:50;;;;;;;32.70;21.35;;;;;;;15.79;79.28;101465.91;6177552;23;20460;-86
2022/09/12 07:42:15;;;;;;;32.50;21.90;;;;;;;15.95;79.05;101457.97;6151470;23;20437;-87
2022/09/12 07:44:41;;;;;;;30.17;20.08;;;;;;;16.19;78.85;101466.47;6152501;23;20005;-85
2022/09/12 07:47:06;;;;;;;31.90;21.92;;;;;;;16.54;77.67;101464.56;6151618;23;20016;-86
2022/09/12 07:49:31;;;;;;;29.55;20.23;;;;;;;16.80;75.98;101461.34;6151347;23;20005;-86
2022/09/12 07:51:57;;;;;;;29.55;20.95;;;;;;;17.03;75.18;101472.53;6152173;23;20005;-87
2022/09/12 07:54:22;;;;;;;30.25;20.52;;;;;;;17.09;74.62;101467.69;6151594;23;20005;-86
2022/09/12 07:56:47;;;;;;;29.77;20.65;;;;;;;17.28;74.77;101462.13;6178902;23;20029;-85
2022/09/12 07:59:13;;;;;;;29.45;21.52;;;;;;;17.48;74.96;101473.47;6153726;23;20076;-86
2022/09/12 08:01:39;;;;;;;26.50;17.90;;;;;;;17.85;72.42;101473.03;6178757;23;20005;-86
2022/09/12 08:04:04;;;;;;;27.52;18.55;;;;;;;18.26;71.65;101471.44;6153438;23;20012;-85
2022/09/12 08:06:30;;;;;;;31.50;18.60;;;;;;;18.65;70.68;101457.34;6181527;23;20088;-85
2022/09/12 08:08:57;;;;;;;28.40;18.67;;;;;;;18.94;70.51;101460.00;6181539;23;20001;-84
2022/09/12 08:11:24;;;;;;;21.70;17.00;;;;;;;19.32;69.08;101477.09;6179425;23;20080;-84
2022/09/12 08:13:51;;;;;;;24.00;17.45;;;;;;;19.72;67.67;101476.25;6179773;23;20347;-84
2022/09/12 08:16:21;;;;;;;23.45;16.33;;;;;;;20.03;66.87;101470.47;6152859;23;20059;-84
2022/09/12 08:18:48;;;;;;;23.00;17.83;;;;;;;20.09;65.69;101477.25;6179795;23;20539;-84
2022/09/12 08:21:16;;;;;;;23.17;15.63;;;;;;;20.56;64.67;101470.34;6179094;23;20005;-84
2022/09/12 08:23:42;;;;;;;23.85;17.10;;;;;;;20.80;62.28;101473.09;6179917;23;20501;-83
2022/09/12 08:26:09;;;;;;;21.65;16.33;;;;;;;20.85;62.59;101476.31;6150962;23;20421;-84
2022/09/12 08:28:34;;;;;;;21.17;16.35;;;;;;;21.16;62.24;101480.25;6179211;23;20012;-84
2022/09/12 08:31:05;;;;;;;20.25;15.32;;;;;;;21.29;61.67;101480.22;6178852;23;20084;-84
2022/09/12 08:33:34;;;;;;;20.77;15.30;;;;;;;21.43;59.64;101479.22;6180030;23;20303;-83
2022/09/12 08:36:20;;;;;;;24.42;17.67;;;;;;;21.67;59.93;101477.31;6151356;23;20433;-84
2022/09/12 08:38:47;;;;;;;20.65;15.75;;;;;;;22.19;59.59;101481.38;6177021;23;20012;-83
2022/09/12 08:41:26;;;;;;;21.48;15.43;;;;;;;22.64;59.04;101482.25;6177724;23;20028;-84
2022/09/12 08:44:10;;;;;;;19.00;14.80;;;;;;;22.83;58.61;101486.13;6179348;23;20504;-83
2022/09/12 08:47:00;;;;;;;19.63;15.35;;;;;;;23.09;57.30;101481.34;6150593;23;20349;-83
2022/09/12 08:49:32;;;;;;;20.42;14.40;;;;;;;23.50;56.21;101485.97;6177534;23;20524;-83
2022/09/12 08:52:04;;;;;;;20.60;15.07;;;;;;;23.83;55.02;101489.53;6178950;23;20005;-84
2022/09/12 08:54:31;;;;;;;20.05;15.15;;;;;;;23.62;54.65;101474.13;6147938;23;20011;-84
2022/09/12 08:57:02;;;;;;;20.95;14.27;;;;;;;23.95;53.98;101472.25;6152923;23;20024;-84
2022/09/12 08:59:39;;;;;;;14.98;12.82;;;;;;;24.67;53.05;101476.75;6178509;23;20011;-84
2022/09/12 09:02:42;;;;;;;14.98;12.60;;;;;;;25.35;52.21;101471.47;6150059;23;20083;-86
2022/09/12 09:05:22;;;;;;;15.40;11.43;;;;;;;25.57;50.38;101470.31;6172734;23;20392;-86
2022/09/12 09:08:07;;;;;;;15.65;12.27;;;;;;;25.80;47.56;101470.91;6179008;23;20056;-86
2022/09/12 09:10:56;;;;;;;14.07;11.63;;;;;;;26.21;47.89;101469.66;6179101;23;20078;-86
2022/09/12 09:16:47;;;;;;;16.67;12.57;;;;;;;26.39;45.44;101464.28;6178987;23;20353;-84
2022/09/12 09:19:23;;;;;;;13.82;10.77;;;;;;;26.96;46.16;101457.72;6180498;23;20480;-84
2022/09/12 09:22:02;;;;;;;14.55;10.80;;;;;;;27.66;45.86;101459.75;6178404;23;20013;-84
2022/09/12 09:24:35;;;;;;;11.20;9.93;;;;;;;28.09;44.66;101453.44;6178349;23;20004;-84
2022/09/12 09:27:07;;;;;;;9.55;8.55;;;;;;;28.27;42.76;101461.53;6179503;23;20009;-84
2022/09/12 09:29:40;;;;;;;12.18;8.60;;;;;;;28.10;40.87;101454.31;6180175;23;20325;-84
2022/09/12 09:32:16;;;;;;;10.43;8.02;;;;;;;28.58;42.93;101450.13;6179929;23;20208;-84
2022/09/12 09:34:41;;;;;;;9.68;7.45;;;;;;;28.95;39.39;101453.34;6177544;23;20143;-85
2022/09/12 09:37:19;;;;;;;7.35;6.68;;;;;;;29.23;41.00;101444.88;6179296;23;20369;-85
2022/09/12 09:39:50;;;;;;;7.22;6.53;;;;;;;29.43;38.36;101449.00;6178602;23;20059;-84
2022/09/12 09:43:01;;;;;;;7.07;6.20;;;;;;;29.95;39.37;101456.81;6178892;23;20340;-85
2022/09/12 09:45:29;;;;;;;9.05;7.00;;;;;;;30.28;37.25;101451.28;6144337;23;20032;-84
2022/09/12 09:48:00;;;;;;;8.13;6.50;;;;;;;30.60;36.09;101452.19;6151914;23;20037;-85
2022/09/12 09:50:26;;;;;;;7.85;6.75;;;;;;;31.45;34.40;101444.84;6153084;23;20418;-84
2022/09/12 09:52:54;;;;;;;9.60;7.13;;;;;;;32.04;33.96;101435.06;6179698;23;20445;-88
2022/09/12 09:55:26;;;;;;;8.48;7.05;;;;;;;32.32;33.64;101430.66;6180008;23;20013;-85
2022/09/12 09:57:52;;;;;;;7.18;5.82;;;;;;;32.68;33.02;101427.94;6178809;23;20453;-84
2022/09/12 10:00:34;;;;;;;7.45;5.60;;;;;;;32.76;33.05;101427.84;6178443;23;20008;-84
2022/09/12 10:03:25;;;;;;;12.20;6.45;;;;;;;33.10;31.61;101415.38;6179558;23;20421;-84
2022/09/12 10:05:53;;;;;;;5.00;4.53;;;;;;;33.71;31.21;101418.44;6151817;23;20017;-84
2022/09/12 10:08:20;;;;;;;5.53;5.03;;;;;;;33.73;29.36;101410.88;6176779;23;20021;-85
2022/09/12 10:10:53;;;;;;;7.07;4.43;;;;;;;33.68;30.98;101407.91;6177332;23;20389;-85
2022/09/12 10:13:56;;;;;;;4.90;4.40;;;;;;;33.89;31.62;101412.47;6150273;23;20028;-85
2022/09/12 10:16:26;;;;;;;5.63;5.07;;;;;;;33.10;28.56;101404.41;6176045;23;20013;-85
2022/09/12 10:18:53;;;;;;;5.20;4.50;;;;;;;32.49;31.38;101395.72;6148948;23;20016;-85
2022/09/12 10:21:26;;;;;;;14.25;5.60;;;;;;;32.60;30.56;101400.72;6176222;23;20352;-85
2022/09/12 10:23:59;;;;;;;4.82;4.28;;;;;;;32.95;31.06;101395.41;6151082;23;20196;-85
2022/09/12 10:26:30;;;;;;;6.18;4.43;;;;;;;32.74;30.64;101394.34;6178568;23;20080;-85
2022/09/12 10:28:55;;;;;;;5.07;4.40;;;;;;;33.02;28.98;101396.34;6176048;23;20004;-86
2022/09/12 10:31:30;;;;;;;6.68;4.57;;;;;;;33.16;30.36;101383.63;6178001;23;20044;-86
2022/09/12 10:33:58;;;;;;;4.25;3.85;;;;;;;32.66;29.04;101378.03;6177797;23;20052;-86
2022/09/12 10:36:25;;;;;;;7.22;4.20;;;;;;;32.41;29.15;101387.59;6176287;23;20143;-86
2022/09/12 10:38:58;;;;;;;5.53;4.57;;;;;;;31.77;30.62;101379.13;6151837;23;20445;-85
2022/09/12 10:41:23;;;;;;;5.25;3.97;;;;;;;32.10;32.12;101380.47;6153004;23;20080;-86
2022/09/12 10:43:49;;;;;;;4.40;4.00;;;;;;;32.58;30.13;101382.75;6152710;23;20091;-86
2022/09/12 10:46:15;;;;;;;5.70;4.00;;;;;;;33.08;29.90;101370.03;6154519;23;20337;-89
2022/09/12 10:48:41;;;;;;;5.53;4.85;;;;;;;32.88;29.24;101361.63;6181019;23;20338;-89
2022/09/12 10:51:24;;;;;;;5.03;4.00;;;;;;;32.69;31.03;101363.06;6182026;23;20005;-90
2022/09/12 10:53:56;;;;;;;5.88;4.15;;;;;;;32.60;30.26;101358.78;6179675;23;20009;-89
2022/09/12 10:56:23;;;;;;;;;;;;;;;33.00;32.54;101360.06;6153054;23;20013;-90
2022/09/12 10:58:54;;;;;;;4.65;4.18;;;;;;;32.52;31.09;101361.66;6177004;23;20340;-91
2022/09/12 11:01:49;;;;;;;5.95;4.28;;;;;;;32.31;30.45;101354.19;6152285;23;20005;-90
2022/09/12 11:04:33;;;;;;;4.78;4.30;;;;;;;31.61;31.87;101347.31;6145046;23;20471;-90
2022/09/12 11:07:27;;;;;;;4.68;3.47;;;;;;;31.36;34.04;101347.56;6152849;23;20021;-91
2022/09/12 11:09:57;;;;;;;5.50;4.38;;;;;;;31.28;33.11;101346.78;6152519;23;20012;-87
2022/09/12 11:12:35;;;;;;;5.30;4.20;;;;;;;31.53;32.25;101342.81;6178158;23;20176;-87
2022/09/12 11:15:04;;;;;;;5.28;3.92;;;;;;;31.18;33.33;101338.84;6151163;23;20441;-87
2022/09/12 11:17:38;;;;;;;3.63;3.33;;;;;;;30.69;32.61;101340.06;6178872;23;20032;-87
2022/09/12 11:20:34;;;;;;;4.05;3.63;;;;;;;30.87;35.03;101336.19;6177582;23;20005;-87
2022/09/12 11:23:20;;;;;;;4.20;3.47;;;;;;;30.69;34.13;101337.31;6178373;23;20055;-87
2022/09/12 11:26:21;;;;;;;4.53;4.10;;;;;;;31.06;34.73;101330.25;6151766;23;20047;-87
2022/09/12 11:29:06;;;;;;;6.13;4.72;;;;;;;31.19;33.38;101322.25;6178237;23;20005;-87
2022/09/12 11:32:12;;;;;;;5.88;4.20;;;;;;;30.69;34.02;101331.03;6179350;23;20071;-88
2022/09/12 11:35:04;;;;;;;4.15;3.75;;;;;;;30.43;35.05;101334.06;6181984;23;20341;-88